Time;durP1;ratioP1;P1;durP2;ratioP2;P2;SDS_P1;SDS_P2;PMS_P1;PMS_P2;Temp;Humidity;BMP_temperature;BMP_pressure;BME280_temperature;BME280_humidity;BME280_pressure;Samples;Min_cycle;Max_cycle;Signal;HPM_P1;HPM_P2
2022/12/26 00:00:22;;;;;;;11.38;8.85;;;;;;;8.35;100.00;101029.47;6250040;22;20079;-80
2022/12/26 00:02:49;;;;;;;14.30;9.35;;;;;;;8.35;100.00;101024.91;6222128;22;20029;-80
2022/12/26 00:05:15;;;;;;;13.63;8.98;;;;;;;8.34;100.00;101025.31;6223247;22;20027;-80
2022/12/26 00:07:42;;;;;;;13.57;9.73;;;;;;;8.34;100.00;101023.41;6223076;22;20099;-80
2022/12/26 00:10:09;;;;;;;13.55;9.85;;;;;;;8.34;100.00;101020.78;6249224;22;20071;-80
2022/12/26 00:12:35;;;;;;;12.05;9.65;;;;;;;8.37;100.00;101037.00;6249746;22;20429;-79
2022/12/26 00:15:03;;;;;;;13.77;9.63;;;;;;;8.35;100.00;101032.88;6222491;22;20411;-80
2022/12/26 00:17:29;;;;;;;14.23;10.32;;;;;;;8.33;100.00;101035.19;6249024;22;20433;-80
2022/12/26 00:19:56;;;;;;;13.13;10.00;;;;;;;8.34;100.00;101036.69;6249268;22;20430;-80
2022/12/26 00:22:22;;;;;;;15.18;10.77;;;;;;;8.35;100.00;101032.13;6249784;22;20350;-80
2022/12/26 00:24:48;;;;;;;16.67;10.85;;;;;;;8.35;100.00;101038.19;6222776;22;20067;-80
2022/12/26 00:27:15;;;;;;;16.80;10.85;;;;;;;8.34;100.00;101036.69;6249241;22;20013;-80
2022/12/26 00:29:42;;;;;;;14.98;11.10;;;;;;;8.36;100.00;101041.56;6222335;22;20469;-80
2022/12/26 00:32:09;;;;;;;15.82;11.57;;;;;;;8.37;100.00;101050.28;6249020;22;20019;-81
2022/12/26 00:34:35;;;;;;;14.77;11.02;;;;;;;8.35;100.00;101061.31;6249810;22;20446;-80
2022/12/26 00:37:02;;;;;;;16.38;10.88;;;;;;;8.35;100.00;101063.97;6249136;22;20474;-80
2022/12/26 00:39:28;;;;;;;14.55;10.75;;;;;;;8.34;100.00;101057.16;6249764;22;20075;-80
2022/12/26 00:41:55;;;;;;;19.23;10.85;;;;;;;8.35;100.00;101056.00;6221811;22;20008;-80
2022/12/26 00:44:21;;;;;;;19.00;12.25;;;;;;;8.34;100.00;101068.53;6249041;22;20017;-78
2022/12/26 00:46:48;;;;;;;15.85;11.77;;;;;;;8.35;100.00;101066.59;6249759;22;20012;-78
2022/12/26 00:49:14;;;;;;;20.35;11.63;;;;;;;8.34;100.00;101067.78;6249123;22;20092;-77
2022/12/26 00:51:41;;;;;;;18.88;11.55;;;;;;;8.32;100.00;101065.53;6249701;22;20021;-77
2022/12/26 00:54:08;;;;;;;17.67;11.27;;;;;;;8.31;100.00;101066.66;6248932;22;20752;-78
2022/12/26 00:56:34;;;;;;;16.10;10.88;;;;;;;8.32;100.00;101070.06;6249469;22;20021;-78
2022/12/26 00:59:01;;;;;;;15.93;10.60;;;;;;;8.32;100.00;101064.75;6248014;22;20013;-77
2022/12/26 01:01:29;;;;;;;16.05;10.88;;;;;;;8.30;100.00;101067.06;6249435;22;20021;-77
2022/12/26 01:03:56;;;;;;;14.88;10.43;;;;;;;8.31;100.00;101082.56;6248633;22;20009;-77
2022/12/26 01:06:23;;;;;;;14.77;10.75;;;;;;;8.31;100.00;101079.94;6249511;22;20528;-77
2022/12/26 01:08:50;;;;;;;15.20;10.55;;;;;;;8.30;100.00;101078.44;6247421;22;20020;-78
2022/12/26 01:11:38;;;;;;;15.60;10.52;;;;;;;8.30;100.00;101077.69;6249561;22;20017;-77
2022/12/26 01:14:11;;;;;;;15.57;10.60;;;;;;;8.30;100.00;101067.81;6248015;22;20079;-78
2022/12/26 01:16:39;;;;;;;16.35;10.35;;;;;;;8.29;100.00;101068.97;6249554;22;20400;-78
2022/12/26 01:19:06;;;;;;;16.17;11.13;;;;;;;8.30;100.00;101070.47;6248544;22;20521;-78
2022/12/26 01:21:33;;;;;;;14.02;9.80;;;;;;;8.31;100.00;101071.97;6249511;22;20024;-78
2022/12/26 01:24:00;;;;;;;17.00;11.48;;;;;;;8.31;100.00;101079.19;6248554;22;20032;-78
2022/12/26 01:26:27;;;;;;;16.10;10.68;;;;;;;8.30;100.00;101067.81;6249605;22;20020;-78
2022/12/26 01:28:53;;;;;;;15.73;10.80;;;;;;;8.30;100.00;101069.72;6248121;22;20020;-78
2022/12/26 01:31:21;;;;;;;18.08;11.13;;;;;;;8.30;100.00;101067.81;6249243;22;20012;-77
2022/12/26 01:33:48;;;;;;;15.95;11.25;;;;;;;8.31;100.00;101056.06;6222895;22;20021;-78
2022/12/26 01:36:16;;;;;;;18.00;11.88;;;;;;;8.30;100.00;101059.88;6248849;22;20075;-78
2022/12/26 01:38:43;;;;;;;17.90;11.65;;;;;;;8.29;100.00;101055.72;6249115;22;20020;-78
2022/12/26 01:41:16;;;;;;;19.65;12.30;;;;;;;8.31;100.00;101057.97;6247463;22;20052;-78
2022/12/26 01:44:05;;;;;;;17.67;12.52;;;;;;;8.32;100.00;101062.09;6223132;22;20046;-78
2022/12/26 01:46:37;;;;;;;18.00;12.63;;;;;;;8.31;100.00;101066.66;6223469;22;20024;-78
2022/12/26 01:49:39;;;;;;;19.52;12.82;;;;;;;8.31;100.00;101064.00;6249966;22;20023;-79
2022/12/26 01:52:12;;;;;;;22.63;13.87;;;;;;;8.31;100.00;101064.00;6248291;22;20439;-78
2022/12/26 01:54:41;;;;;;;21.35;13.32;;;;;;;8.33;100.00;101074.25;6250713;22;20238;-79
2022/12/26 01:57:13;;;;;;;22.45;14.30;;;;;;;8.32;100.00;101091.28;6249237;22;20028;-79
2022/12/26 01:59:40;;;;;;;24.98;14.70;;;;;;;8.31;100.00;101077.28;6250678;22;20017;-79
2022/12/26 02:02:08;;;;;;;24.42;15.68;;;;;;;8.32;100.00;101075.38;6250079;22;20375;-80
2022/12/26 02:07:25;;;;;;;26.17;15.32;;;;;;;8.31;100.00;101069.31;6250917;22;20021;-80
2022/12/26 02:09:52;;;;;;;24.42;15.10;;;;;;;8.31;100.00;101071.22;6249845;22;20040;-80
2022/12/26 02:12:29;;;;;;;26.02;16.20;;;;;;;8.33;100.00;101074.25;6222964;22;20431;-80
2022/12/26 02:15:10;;;;;;;31.42;16.08;;;;;;;8.32;100.00;101068.19;6249670;22;20021;-80
2022/12/26 02:17:38;;;;;;;24.40;15.05;;;;;;;8.31;100.00;101056.06;6223870;22;20477;-80
2022/12/26 02:20:17;;;;;;;29.25;16.30;;;;;;;8.32;100.00;101046.19;6222984;22;20013;-80
2022/12/26 02:23:09;;;;;;;28.27;16.55;;;;;;;8.30;100.00;101059.13;6250673;22;20013;-80
2022/12/26 02:25:44;;;;;;;24.17;15.10;;;;;;;8.28;100.00;101059.53;6223566;22;20469;-80
2022/12/26 02:28:36;;;;;;;18.63;14.30;;;;;;;8.26;100.00;101059.19;6223093;22;20012;-80
2022/12/26 02:31:30;;;;;;;22.48;14.93;;;;;;;8.25;100.00;101060.38;6249898;22;20087;-80
2022/12/26 02:33:57;;;;;;;22.92;15.50;;;;;;;8.24;100.00;101069.47;6222778;22;20017;-80
2022/12/26 02:37:00;;;;;;;24.65;15.30;;;;;;;8.24;100.00;101068.72;6250341;22;20024;-80
2022/12/26 02:39:56;;;;;;;23.70;15.23;;;;;;;8.23;100.00;101068.00;6250005;22;20499;-80
2022/12/26 02:42:47;;;;;;;24.75;15.48;;;;;;;8.23;100.00;101070.63;6249660;22;20016;-80
2022/12/26 02:48:32;;;;;;;23.85;14.93;;;;;;;8.21;100.00;101061.59;6249769;22;20020;-80
2022/12/26 03:14:32;;;;;;;23.75;15.40;;;;;;;8.09;100.00;101039.13;6249746;22;20013;-80
2022/12/26 03:17:19;;;;;;;24.80;15.93;;;;;;;8.08;100.00;101050.16;6249412;22;20020;-80
2022/12/26 03:19:58;;;;;;;20.50;14.57;;;;;;;8.10;100.00;101053.13;6250025;22;20019;-80
2022/12/26 03:22:31;;;;;;;22.73;15.45;;;;;;;8.10;100.00;101056.53;6250182;22;20101;-80
2022/12/26 03:27:46;;;;;;;20.35;14.93;;;;;;;8.12;100.00;101069.38;6250564;22;20020;-79
2022/12/26 03:32:59;;;;;;;22.17;16.23;;;;;;;8.12;100.00;101075.44;6249513;22;20023;-79
2022/12/26 03:35:29;;;;;;;24.77;16.45;;;;;;;8.13;100.00;101076.94;6250221;22;20013;-79
2022/12/26 03:38:06;;;;;;;23.07;16.73;;;;;;;8.12;100.00;101070.13;6249239;22;20029;-79
2022/12/26 04:19:57;;;;;;;15.63;12.23;;;;;;;8.01;100.00;101061.66;6216804;22;20031;-80
2022/12/26 04:45:21;;;;;;;12.63;10.85;;;;;;;7.83;100.00;101071.94;6249620;22;20406;-81
2022/12/26 04:50:35;;;;;;;12.75;11.02;;;;;;;7.77;100.00;101070.94;6249434;22;20024;-80
2022/12/26 04:53:01;;;;;;;14.38;11.18;;;;;;;7.76;100.00;101064.13;6246241;22;20021;-79
2022/12/26 04:55:34;;;;;;;22.73;12.60;;;;;;;7.74;100.00;101056.59;6222395;22;20024;-79
2022/12/26 04:58:02;;;;;;;17.60;13.32;;;;;;;7.72;100.00;101058.16;6248946;22;20016;-79
2022/12/26 05:00:28;;;;;;;13.45;11.85;;;;;;;7.70;100.00;101055.91;6249698;22;20024;-79
2022/12/26 05:11:23;;;;;;;15.93;13.10;;;;;;;7.65;100.00;101045.81;6249624;22;20047;-80
2022/12/26 05:13:53;;;;;;;17.77;14.00;;;;;;;7.63;100.00;101043.56;6249401;22;20085;-79
2022/12/26 05:30:19;;;;;;;19.95;14.35;;;;;;;7.54;100.00;101040.75;6249136;22;20421;-79
2022/12/26 05:35:31;;;;;;;19.75;13.77;;;;;;;7.51;100.00;101041.56;6249876;22;20104;-79
2022/12/26 05:37:58;;;;;;;22.52;13.45;;;;;;;7.51;100.00;101056.72;6222880;22;20115;-79
2022/12/26 05:40:24;;;;;;;16.55;12.95;;;;;;;7.50;100.00;101058.63;6250251;22;20013;-79
2022/12/26 05:42:51;;;;;;;17.30;12.98;;;;;;;7.48;100.00;101058.28;6223197;22;20021;-79
2022/12/26 05:45:18;;;;;;;18.15;12.60;;;;;;;7.47;100.00;101045.44;6250705;22;20469;-79
2022/12/26 05:47:45;;;;;;;17.30;12.00;;;;;;;7.45;100.00;101050.41;6250354;22;20013;-79
2022/12/26 05:50:17;;;;;;;14.85;11.25;;;;;;;7.43;100.00;101058.75;6249986;22;20414;-79
2022/12/26 05:52:43;;;;;;;14.23;10.98;;;;;;;7.42;100.00;101057.28;6250236;22;20020;-79
2022/12/26 05:55:11;;;;;;;16.55;11.23;;;;;;;7.40;100.00;101066.78;6249743;22;20021;-79
2022/12/26 05:57:37;;;;;;;17.17;11.20;;;;;;;7.38;100.00;101063.78;6223097;22;20021;-79
2022/12/26 06:00:04;;;;;;;14.93;10.70;;;;;;;7.36;100.00;101058.91;6249780;22;20124;-79
2022/12/26 06:02:31;;;;;;;13.45;10.98;;;;;;;7.34;100.00;101059.31;6250151;22;20104;-79
2022/12/26 06:04:57;;;;;;;13.35;10.13;;;;;;;7.32;100.00;101050.28;6249263;22;20023;-79
2022/12/26 06:07:24;;;;;;;12.52;9.95;;;;;;;7.31;100.00;101048.78;6250516;22;20013;-79
2022/12/26 06:09:50;;;;;;;13.48;9.68;;;;;;;7.30;100.00;101036.69;6223184;22;20024;-79
2022/12/26 06:12:17;;;;;;;9.95;8.75;;;;;;;7.30;100.00;101042.00;6250317;22;20052;-79
2022/12/26 06:14:43;;;;;;;17.25;9.10;;;;;;;7.27;100.00;101048.84;6250454;22;20032;-79
2022/12/26 06:17:10;;;;;;;11.82;9.15;;;;;;;7.26;100.00;101044.72;6249759;22;20097;-79
2022/12/26 06:19:36;;;;;;;8.95;7.93;;;;;;;7.26;100.00;101049.25;6249761;22;20012;-79
2022/12/26 06:22:11;;;;;;;9.13;7.93;;;;;;;7.27;100.00;101056.03;6249670;22;20013;-79
2022/12/26 06:24:38;;;;;;;11.05;8.50;;;;;;;7.30;100.00;101063.19;6250420;22;20021;-79
2022/12/26 06:27:04;;;;;;;9.63;8.05;;;;;;;7.32;100.00;101055.56;6249370;22;20443;-78
2022/12/26 06:29:31;;;;;;;11.65;7.88;;;;;;;7.32;100.00;101051.03;6250384;22;20019;-79
2022/12/26 06:31:57;;;;;;;8.10;6.88;;;;;;;7.32;100.00;101043.06;6249518;22;20021;-78
2022/12/26 06:34:26;;;;;;;9.60;7.35;;;;;;;7.32;100.00;101044.97;6249835;22;20465;-78
2022/12/26 06:36:54;;;;;;;8.18;7.10;;;;;;;7.31;100.00;101056.72;6222851;22;20088;-79
2022/12/26 06:39:21;;;;;;;10.23;6.68;;;;;;;7.27;100.00;101059.44;6249891;22;20016;-79
2022/12/26 06:41:48;;;;;;;8.52;7.22;;;;;;;7.26;100.00;101057.19;6248100;22;20021;-79
2022/12/26 06:44:15;;;;;;;6.88;6.13;;;;;;;7.25;100.00;101056.47;6248776;22;20016;-80
2022/12/26 06:46:44;;;;;;;8.05;6.65;;;;;;;7.25;100.00;101056.47;6248070;22;20020;-80
2022/12/26 06:49:10;;;;;;;9.25;6.40;;;;;;;7.25;100.00;101066.31;6248176;22;20009;-80
2022/12/26 06:51:37;;;;;;;8.05;6.82;;;;;;;7.24;100.00;101067.44;6251078;22;20067;-79
2022/12/26 06:54:04;;;;;;;7.32;6.35;;;;;;;7.24;100.00;101073.50;6250791;22;20024;-79
2022/12/26 06:56:31;;;;;;;7.38;6.30;;;;;;;7.25;100.00;101080.28;6251007;22;20017;-76
2022/12/26 06:59:00;;;;;;;6.60;5.95;;;;;;;7.26;100.00;101078.38;6250543;22;20024;-76
2022/12/26 07:01:28;;;;;;;7.97;6.68;;;;;;;7.26;100.00;101070.44;6250591;22;20017;-76
2022/12/26 07:03:56;;;;;;;6.97;6.35;;;;;;;7.25;100.00;101075.00;6250827;22;20020;-75
2022/12/26 07:06:28;;;;;;;10.13;6.90;;;;;;;7.26;100.00;101067.78;6249546;22;20126;-77
2022/12/26 07:08:58;;;;;;;8.50;6.13;;;;;;;7.28;100.00;101071.53;6249322;22;20017;-77
2022/12/26 07:11:27;;;;;;;8.68;6.75;;;;;;;7.32;100.00;101074.84;6250910;22;20020;-76
2022/12/26 07:13:55;;;;;;;7.40;6.60;;;;;;;7.37;100.00;101073.63;6250787;22;20436;-77
2022/12/26 07:16:22;;;;;;;6.90;6.25;;;;;;;7.38;100.00;101079.69;6223900;22;20013;-79
2022/12/26 07:18:54;;;;;;;9.52;6.15;;;;;;;7.40;100.00;101078.13;6250801;22;20021;-79
2022/12/26 07:21:22;;;;;;;6.43;5.70;;;;;;;7.39;100.00;101067.94;6249616;22;20425;-78
2022/12/26 07:23:49;;;;;;;6.45;5.35;;;;;;;7.40;100.00;101050.88;6250514;22;20451;-78
2022/12/26 07:26:16;;;;;;;6.07;5.40;;;;;;;7.40;100.00;101066.78;6251133;22;20040;-76
2022/12/26 07:28:42;;;;;;;7.15;5.95;;;;;;;7.38;100.00;101069.09;6224240;22;20086;-76
2022/12/26 07:31:15;;;;;;;5.82;5.25;;;;;;;7.38;100.00;101067.19;6250071;22;20017;-77
2022/12/26 07:33:41;;;;;;;6.97;5.43;;;;;;;7.39;100.00;101073.22;6250845;22;20048;-78
2022/12/26 07:36:08;;;;;;;6.65;5.30;;;;;;;7.36;100.00;101059.66;6250693;22;20422;-77
2022/12/26 07:38:34;;;;;;;7.85;5.28;;;;;;;7.34;100.00;101058.56;6197971;22;20016;-77
2022/12/26 07:41:56;;;;;;;8.82;5.15;;;;;;;7.33;100.00;101060.47;6249791;22;20040;-77
2022/12/26 07:43:47;;;;;;;5.40;4.90;;;;;;;7.33;100.00;101054.41;6250438;22;20027;-77
2022/12/26 07:46:14;;;;;;;8.20;5.13;;;;;;;7.32;100.00;101056.31;6250259;22;20021;-77
2022/12/26 07:48:40;;;;;;;5.78;5.18;;;;;;;7.32;100.00;101061.63;6250738;22;20512;-78
2022/12/26 07:51:07;;;;;;;5.43;4.93;;;;;;;7.34;100.00;101067.25;6223819;22;20525;-78
2022/12/26 07:53:33;;;;;;;7.00;4.57;;;;;;;7.38;100.00;101063.78;6250821;22;20017;-78
2022/12/26 07:56:00;;;;;;;4.72;4.32;;;;;;;7.41;100.00;101060.31;6250497;22;20032;-80
2022/12/26 07:58:27;;;;;;;4.93;4.30;;;;;;;7.41;100.00;101074.31;6249039;22;20544;-77
2022/12/26 08:00:53;;;;;;;8.63;4.65;;;;;;;7.43;100.00;101072.00;6223104;22;20017;-80
2022/12/26 08:03:20;;;;;;;6.63;4.20;;;;;;;7.45;100.00;101067.03;6250811;22;20067;-77
2022/12/26 08:05:47;;;;;;;7.43;4.57;;;;;;;7.48;100.00;101062.84;6223779;22;20016;-78
2022/12/26 08:08:15;;;;;;;5.50;4.35;;;;;;;7.52;100.00;101068.81;6250997;22;20435;-76
2022/12/26 08:10:41;;;;;;;4.82;4.10;;;;;;;7.56;100.00;101066.84;6250802;22;20092;-79
2022/12/26 08:13:08;;;;;;;4.43;3.83;;;;;;;7.61;100.00;101061.03;6223448;22;20127;-83
2022/12/26 08:15:38;;;;;;;5.13;3.92;;;;;;;7.67;100.00;101065.44;6222741;22;20016;-74
2022/12/26 08:18:06;;;;;;;4.28;3.90;;;;;;;7.69;100.00;101072.97;6250418;22;20446;-76
2022/12/26 08:20:32;;;;;;;4.03;3.70;;;;;;;7.70;100.00;101066.53;6250928;22;20016;-75
2022/12/26 08:22:59;;;;;;;7.00;3.47;;;;;;;7.70;100.00;101077.88;6250363;22;20489;-78
2022/12/26 08:25:26;;;;;;;4.78;3.53;;;;;;;7.73;100.00;101072.91;6250551;22;20017;-77
2022/12/26 08:27:53;;;;;;;3.88;3.53;;;;;;;7.74;100.00;101077.78;6250340;22;20016;-77
2022/12/26 08:30:19;;;;;;;4.05;3.20;;;;;;;7.75;100.00;101081.19;6250028;22;20465;-77
2022/12/26 08:32:46;;;;;;;4.18;3.28;;;;;;;7.76;100.00;101088.72;6223601;22;20025;-77
2022/12/26 08:35:12;;;;;;;4.22;3.40;;;;;;;7.81;100.00;101087.50;6223232;22;20021;-77
2022/12/26 08:37:39;;;;;;;7.93;3.25;;;;;;;7.84;100.00;101095.38;6250488;22;20019;-77
2022/12/26 08:40:06;;;;;;;9.10;3.13;;;;;;;7.86;100.00;101093.06;6222859;22;20024;-77
2022/12/26 08:42:33;;;;;;;6.20;3.35;;;;;;;7.91;100.00;101097.13;6250591;22;20043;-77
2022/12/26 08:45:10;;;;;;;7.32;3.13;;;;;;;7.95;100.00;101106.50;6250154;22;20104;-77
2022/12/26 08:47:36;;;;;;;4.57;3.15;;;;;;;8.01;100.00;101102.19;6250675;22;20012;-77
2022/12/26 08:50:03;;;;;;;7.20;2.97;;;;;;;8.07;100.00;101096.38;6223688;22;20617;-78
2022/12/26 08:52:30;;;;;;;8.02;3.55;;;;;;;8.10;100.00;101100.88;6223357;22;20599;-77
2022/12/26 08:54:56;;;;;;;5.32;2.97;;;;;;;8.12;100.00;101104.59;6249987;22;20476;-78
2022/12/26 08:57:23;;;;;;;3.95;2.97;;;;;;;8.14;100.00;101104.94;6222847;22;20402;-77
2022/12/26 08:59:49;;;;;;;7.18;2.72;;;;;;;8.14;100.00;101112.91;6249996;22;20061;-77
2022/12/26 09:02:16;;;;;;;3.28;2.60;;;;;;;8.15;100.00;101109.09;6223231;22;20056;-77
2022/12/26 09:04:42;;;;;;;3.10;2.80;;;;;;;8.16;100.00;101126.50;6250683;22;20457;-77
2022/12/26 09:07:09;;;;;;;3.47;3.08;;;;;;;8.17;100.00;101125.34;6223348;22;20048;-76
2022/12/26 09:09:36;;;;;;;7.22;2.95;;;;;;;8.18;100.00;101137.44;6250470;22;20023;-76
2022/12/26 09:12:02;;;;;;;5.40;3.00;;;;;;;8.20;100.00;101145.72;6222196;22;20059;-77
2022/12/26 09:14:29;;;;;;;4.20;2.78;;;;;;;8.21;100.00;101149.88;6249909;22;20012;-76
2022/12/26 09:16:55;;;;;;;8.02;3.17;;;;;;;8.21;100.00;101163.13;6250000;22;20012;-76
2022/12/26 09:19:22;;;;;;;5.43;2.70;;;;;;;8.21;100.00;101157.81;6249965;22;20016;-77
2022/12/26 09:22:49;;;;;;;4.13;2.60;;;;;;;8.21;100.00;101157.81;6250064;22;20056;-77
2022/12/26 09:24:35;;;;;;;4.05;2.47;;;;;;;8.22;100.00;101172.59;6250003;22;20477;-77
2022/12/26 09:27:02;;;;;;;6.25;3.25;;;;;;;8.25;100.00;101185.03;6249399;22;20427;-77
2022/12/26 09:29:28;;;;;;;3.90;2.55;;;;;;;8.25;100.00;101200.19;6249927;22;20013;-77
2022/12/26 09:31:55;;;;;;;4.97;4.18;;;;;;;8.22;100.00;101212.38;6222922;22;20017;-76
2022/12/26 09:34:21;;;;;;;5.93;3.55;;;;;;;8.18;100.00;101206.38;6250179;22;20020;-77
2022/12/26 09:36:48;;;;;;;4.72;3.05;;;;;;;8.14;100.00;101218.22;6250234;22;20031;-77
2022/12/26 09:39:15;;;;;;;8.20;3.58;;;;;;;8.12;100.00;101234.53;6249716;22;20079;-77
2022/12/26 09:41:41;;;;;;;10.18;4.43;;;;;;;8.11;100.00;101227.75;6249189;22;20477;-76
2022/12/26 09:44:18;;;;;;;5.55;3.80;;;;;;;8.10;100.00;101233.47;6249550;22;20040;-77
2022/12/26 09:47:13;;;;;;;5.13;2.60;;;;;;;8.11;100.00;101232.31;6250066;22;20017;-77
2022/12/26 09:50:00;;;;;;;10.13;3.17;;;;;;;8.11;100.00;101237.59;6250028;22;20043;-77
2022/12/26 09:52:39;;;;;;;5.75;2.90;;;;;;;8.08;100.00;101256.97;6250060;22;20021;-78
2022/12/26 09:55:35;;;;;;;5.78;2.33;;;;;;;8.06;100.00;101280.50;6249406;22;20013;-77
2022/12/26 09:58:42;;;;;;;5.85;1.88;;;;;;;7.88;100.00;101294.88;6249540;22;20451;-76
2022/12/26 10:01:12;;;;;;;11.95;2.80;;;;;;;7.69;100.00;101298.22;6249807;22;20077;-77
2022/12/26 10:03:52;;;;;;;15.70;1.85;;;;;;;7.60;100.00;101317.28;6251187;22;20071;-77
2022/12/26 10:06:21;;;;;;;9.32;2.00;;;;;;;7.59;100.00;101317.72;6251570;22;20020;-77
2022/12/26 10:09:14;;;;;;;8.95;1.73;;;;;;;7.61;100.00;101321.44;6251578;22;20447;-77
2022/12/26 10:12:06;;;;;;;8.88;1.75;;;;;;;7.58;100.00;101327.56;6223860;22;20048;-77
2022/12/26 10:14:53;;;;;;;17.88;2.45;;;;;;;7.56;100.00;101331.78;6251250;22;20023;-77
2022/12/26 10:17:27;;;;;;;9.15;1.42;;;;;;;7.51;99.87;101334.88;6251324;22;20083;-76
2022/12/26 10:20:00;;;;;;;8.55;2.08;;;;;;;7.47;99.41;101344.78;6250969;22;20016;-78
2022/12/26 10:22:55;;;;;;;7.43;1.50;;;;;;;7.42;98.47;101355.84;6224245;22;20036;-77
2022/12/26 10:25:30;;;;;;;6.85;2.00;;;;;;;7.32;99.00;101373.38;6250401;22;20079;-77
2022/12/26 10:28:01;;;;;;;6.32;1.65;;;;;;;7.29;97.89;101369.63;6250831;22;20484;-76
2022/12/26 10:30:36;;;;;;;8.00;2.05;;;;;;;7.24;98.29;101378.03;6251071;22;20100;-79
2022/12/26 10:33:11;;;;;;;8.50;1.88;;;;;;;7.22;98.09;101385.63;6250582;22;20039;-78
2022/12/26 10:35:42;;;;;;;10.82;2.47;;;;;;;7.20;97.45;101377.34;6224744;22;20023;-80
2022/12/26 10:38:22;;;;;;;11.05;2.20;;;;;;;7.19;97.40;101386.44;6250833;22;20012;-76
2022/12/26 10:40:55;;;;;;;7.75;2.17;;;;;;;7.13;96.90;101393.34;6249638;22;20084;-79
2022/12/26 10:43:30;;;;;;;5.85;2.40;;;;;;;7.05;96.48;101397.22;6251025;22;20430;-79
2022/12/26 10:46:11;;;;;;;5.68;1.80;;;;;;;7.01;95.20;101386.69;6248844;22;20025;-78
2022/12/26 10:48:38;;;;;;;16.17;2.95;;;;;;;7.01;95.51;101393.88;6249632;22;20105;-78
2022/12/26 10:51:05;;;;;;;9.07;2.55;;;;;;;6.99;95.54;101399.56;6250697;22;20017;-77
2022/12/26 10:53:33;;;;;;;9.35;2.08;;;;;;;6.99;94.91;101409.41;6250614;22;20071;-77
2022/12/26 10:56:00;;;;;;;6.53;1.77;;;;;;;6.95;94.95;101414.00;6223033;22;20047;-78
2022/12/26 10:58:35;;;;;;;5.68;1.98;;;;;;;6.95;94.41;101419.28;6223997;22;20031;-78
2022/12/26 11:01:26;;;;;;;7.85;1.35;;;;;;;6.91;95.27;101406.09;6223772;22;20056;-78
2022/12/26 11:04:21;;;;;;;5.00;1.35;;;;;;;6.94;94.23;101407.94;6250819;22;20012;-77
2022/12/26 11:07:10;;;;;;;4.15;1.92;;;;;;;6.95;93.44;101412.09;6202718;22;20027;-78
2022/12/26 11:09:36;;;;;;;5.65;1.70;;;;;;;6.92;93.89;101425.38;6223298;22;20096;-77
2022/12/26 11:12:04;;;;;;;11.43;2.00;;;;;;;6.98;93.07;101435.13;6250749;22;20020;-78
2022/12/26 11:14:38;;;;;;;4.10;1.60;;;;;;;7.09;92.87;101432.34;6251152;22;20016;-78
2022/12/26 11:17:27;;;;;;;3.05;1.75;;;;;;;7.13;93.07;101440.25;6248937;22;20031;-78
2022/12/26 11:20:20;;;;;;;3.63;1.63;;;;;;;7.18;92.62;101435.25;6208624;22;20021;-79
2022/12/26 11:22:47;;;;;;;2.63;1.13;;;;;;;7.14;92.02;101434.56;6223635;22;20017;-78
2022/12/26 11:25:24;;;;;;;5.53;1.73;;;;;;;7.14;92.56;101444.41;6223761;22;20469;-78
2022/12/26 11:27:54;;;;;;;5.03;1.30;;;;;;;7.11;92.40;101450.50;6223387;22;20024;-78
2022/12/26 11:30:22;;;;;;;6.07;1.60;;;;;;;7.06;92.31;101454.31;6224259;22;20023;-78
2022/12/26 11:33:29;;;;;;;9.45;1.55;;;;;;;7.00;92.41;101448.72;6251281;22;20016;-78
2022/12/26 11:36:04;;;;;;;4.95;1.40;;;;;;;7.01;92.58;101462.72;6219463;22;20017;-78
2022/12/26 11:38:43;;;;;;;3.38;1.40;;;;;;;7.03;92.27;101476.28;6223258;22;20087;-78
2022/12/26 11:41:30;;;;;;;7.30;1.80;;;;;;;7.00;92.88;101477.09;6250345;22;20472;-78
2022/12/26 11:44:09;;;;;;;10.15;2.55;;;;;;;7.01;92.94;101482.00;6249062;22;20012;-78
2022/12/26 11:46:42;;;;;;;8.27;2.20;;;;;;;7.07;92.57;101473.59;6224481;22;20501;-78
2022/12/26 11:49:16;;;;;;;3.38;1.40;;;;;;;7.07;92.59;101470.97;6223062;22;20413;-78
2022/12/26 11:51:45;;;;;;;7.72;1.42;;;;;;;7.09;91.36;101492.50;6223917;22;20019;-78
2022/12/26 11:54:20;;;;;;;4.03;0.90;;;;;;;7.12;91.41;101486.41;6198378;22;20025;-77
2022/12/26 11:56:48;;;;;;;7.32;2.92;;;;;;;7.13;91.86;101485.25;6224092;22;20463;-77
2022/12/26 11:59:22;;;;;;;9.52;1.25;;;;;;;7.13;90.27;101479.97;6250721;22;20021;-78
2022/12/26 12:02:14;;;;;;;7.28;1.48;;;;;;;7.15;91.34;101493.56;6224110;22;20035;-77
2022/12/26 12:04:41;;;;;;;5.15;0.90;;;;;;;7.21;90.02;101489.31;6251022;22;20332;-78
2022/12/26 12:07:37;;;;;;;4.53;1.50;;;;;;;7.23;90.49;101487.00;6248419;22;20013;-77
2022/12/26 12:10:32;;;;;;;6.90;1.90;;;;;;;7.25;90.05;101495.31;6250346;22;20040;-78
2022/12/26 12:13:13;;;;;;;2.58;1.30;;;;;;;7.17;90.25;101496.56;6250414;22;20017;-78
2022/12/26 12:15:50;;;;;;;3.33;0.93;;;;;;;7.06;88.57;101494.03;6250853;22;20447;-78
2022/12/26 12:18:30;;;;;;;3.35;1.35;;;;;;;6.96;87.65;101497.56;6223537;22;20016;-78
2022/12/26 12:21:19;;;;;;;7.68;1.13;;;;;;;6.83;87.70;101499.94;6249918;22;20024;-77
2022/12/26 12:23:54;;;;;;;3.60;1.10;;;;;;;6.81;86.98;101499.59;6250369;22;20450;-78
2022/12/26 12:26:31;;;;;;;3.75;1.42;;;;;;;6.78;86.87;101502.31;6224070;22;20057;-78
2022/12/26 12:29:14;;;;;;;5.10;1.40;;;;;;;6.77;86.48;101503.44;6223197;22;20016;-78
2022/12/26 12:32:01;;;;;;;3.78;0.95;;;;;;;6.72;86.16;101507.28;6250796;22;20090;-78
2022/12/26 12:34:52;;;;;;;4.10;0.88;;;;;;;6.69;86.76;101500.88;6223770;22;20044;-78
2022/12/26 12:37:27;;;;;;;3.92;1.30;;;;;;;6.64;86.18;101498.66;6250613;22;20016;-78
2022/12/26 12:40:21;;;;;;;4.88;1.17;;;;;;;6.64;86.25;101513.78;6222875;22;20016;-78
2022/12/26 12:43:12;;;;;;;3.90;1.27;;;;;;;6.60;86.87;101513.06;6248976;22;20020;-78
2022/12/26 12:46:10;;;;;;;3.65;1.30;;;;;;;6.58;86.15;101512.69;6250721;22;20017;-78
2022/12/26 12:48:39;;;;;;;2.33;0.95;;;;;;;6.56;85.54;101509.69;6250440;22;20417;-78
2022/12/26 12:52:11;;;;;;;4.82;1.00;;;;;;;6.58;85.96;101520.63;6249756;22;20017;-78
2022/12/26 12:55:00;;;;;;;2.53;1.08;;;;;;;6.57;86.33;101525.19;6157702;23;20025;-78
2022/12/26 12:57:44;;;;;;;6.93;1.15;;;;;;;6.57;85.22;101535.00;6187025;23;20104;-78
2022/12/26 13:00:13;;;;;;;4.97;1.08;;;;;;;6.58;84.73;101531.97;6161133;23;20025;-78
2022/12/26 13:02:48;;;;;;;5.70;1.00;;;;;;;6.59;84.37;101524.78;6162665;23;20018;-78
2022/12/26 13:05:38;;;;;;;4.53;0.88;;;;;;;6.55;83.67;101521.41;6161120;23;20021;-78
2022/12/26 13:08:11;;;;;;;5.20;0.82;;;;;;;6.59;83.43;101530.06;6186711;23;20072;-78
2022/12/26 13:10:49;;;;;;;4.03;0.60;;;;;;;6.61;82.12;101533.84;6187141;23;20022;-78
2022/12/26 13:13:22;;;;;;;1.42;0.80;;;;;;;6.63;80.46;101533.44;6162001;23;20025;-78
2022/12/26 13:15:54;;;;;;;1.48;0.90;;;;;;;6.57;79.81;101535.00;6186034;23;20483;-78
2022/12/26 13:18:25;;;;;;;2.10;0.75;;;;;;;6.56;79.15;101544.84;6186163;23;20443;-77
2022/12/26 13:20:58;;;;;;;5.40;1.02;;;;;;;6.60;79.21;101544.81;6161221;23;20434;-78
2022/12/26 13:26:20;;;;;;;3.50;1.10;;;;;;;6.75;79.30;101542.78;6250180;22;20021;-78
2022/12/26 13:29:05;;;;;;;5.18;1.38;;;;;;;6.83;79.09;101538.91;6223491;22;20435;-78
2022/12/26 13:31:34;;;;;;;4.13;1.20;;;;;;;6.91;78.90;101538.44;6250168;22;20017;-78
2022/12/26 13:34:02;;;;;;;3.58;1.42;;;;;;;6.98;78.55;101540.25;6248949;22;20079;-78
2022/12/26 13:36:38;;;;;;;3.17;0.88;;;;;;;7.02;78.71;101546.28;6250665;22;20403;-78
2022/12/26 13:39:11;;;;;;;2.90;1.10;;;;;;;7.04;78.59;101551.94;6251195;22;20013;-78
2022/12/26 13:44:32;;;;;;;8.25;1.00;;;;;;;7.01;76.76;101558.75;6224080;22;20024;-78
2022/12/26 13:46:59;;;;;;;2.30;1.20;;;;;;;6.97;77.57;101565.22;6249162;22;20511;-78
2022/12/26 13:49:38;;;;;;;6.82;1.20;;;;;;;6.95;77.96;101562.22;6249170;22;20126;-78
2022/12/26 13:52:10;;;;;;;2.65;1.02;;;;;;;7.00;76.60;101567.09;6249748;22;20021;-82
2022/12/26 13:55:06;;;;;;;5.32;1.13;;;;;;;6.94;77.17;101569.41;6251019;22;20020;-82
2022/12/26 13:57:44;;;;;;;1.98;1.30;;;;;;;6.91;76.48;101572.84;6223491;22;20021;-79